MET'MAP v2.0
soon released !

Expected late october,
this new version will be
more efficient, smarter,
and hosted on a brand new
server x3 powerfull...
...and still free !


Not compatible ?
Try the mobile version !

LOG IN : | Subscribe | Disclaimer | Who is Orbifly ? |
ICAO code :

TAF - DTTX Thyna/El Maou - Sfax - 17 Feb 2020 16:04 UTC - Data Source NOAA   


- Airport Elevation : 85 ft
- IATA code : SFA
- No reported NOTAMs.


DTTX - Thyna/El Maou - Sfax

Latest METAR recorded : 2015/08/11 08:00 DTTX 110800Z 25004KT 220V330 8000 NSC 31/19 Q1012 NOSIG
TAF TAF DTTX
Valid from the 17 at 12:00 until the 18 at 12:00 UTC


171100Z 1712/1812 05005KT 9999 SCT020
BECMG 1713/1715 15010KT
BECMG 1716/1718 15003KT
PROB30 1805/1807 3000 BR FEW014
BECMG 1807/1809 30006KT 5000
BECMG 1810/1812 02010KT 8000 FEW020

Source NOAA


MET'MAP, your aeronautical weather chart ! - Copyright ORBIFLY December 2007

Programming & Development : Alexandra Zaïnal
Co-Developer : Marc-Olivier Méhu
Technical & hardware support : Manuel Goepfert
Concept & Financing : Baudouin d'Aumeries